This is the latest recevied weather packets stored in our database for station/object DK4EP-10. If no packets are shown the sender has not sent any weather packets the latest 10 day(s).
| Time | Temp. | Humidity | Pressure | Rain* | Wind** | Luminosity | Snow |
|---|---|---|---|---|---|---|---|
| 1777623580 | 20° C | 48% | 1006 hPa | - | - | - | - |
| 1777622570 | 20.56° C | 47% | 1006 hPa | - | - | - | - |
| 1777621668 | 21.11° C | 45% | 1006 hPa | - | - | - | - |
| 1777620767 | 20.56° C | 47% | 1006 hPa | - | - | - | - |
| 1777619866 | 21.11° C | 47% | 1006 hPa | - | - | - | - |
| 1777618965 | 19.44° C | 49% | 1006 hPa | - | - | - | - |
| 1777618064 | 18.89° C | 51% | 1006 hPa | - | - | - | - |
| 1777617162 | 17.22° C | 51% | 1006 hPa | - | - | - | - |
| 1777616261 | 17.22° C | 55% | 1006 hPa | - | - | - | - |
| 1777615360 | 17.78° C | 52% | 1006 hPa | - | - | - | - |
| 1777614459 | 16.11° C | 58% | 1006 hPa | - | - | - | - |
| 1777613558 | 14.44° C | 58% | 1006 hPa | - | - | - | - |
| 1777612657 | 11.67° C | 68% | 1006 hPa | - | - | - | - |
| 1777611755 | 7.78° C | 85% | 1006 hPa | - | - | - | - |
| 1777610854 | 3.33° C | 100% | 1006 hPa | - | - | - | - |
| 1777609953 | 2.78° C | 100% | 1006 hPa | - | - | - | - |
| 1777609052 | 2.22° C | 100% | 1006 hPa | - | - | - | - |
| 1777608151 | 2.22° C | 100% | 1006 hPa | - | - | - | - |
| 1777607249 | 2.22° C | 100% | 1006 hPa | - | - | - | - |
| 1777606348 | 2.22° C | 100% | 1006 hPa | - | - | - | - |
| 1777605446 | 2.22° C | 100% | 1006 hPa | - | - | - | - |
| 1777604545 | 2.22° C | 100% | 1006 hPa | - | - | - | - |
| 1777603644 | 2.22° C | 100% | 1006 hPa | - | - | - | - |
| 1777602743 | 2.22° C | 100% | 1006 hPa | - | - | - | - |
| 1777601841 | 2.22° C | 100% | 1006 hPa | - | - | - | - |
* Rain since midnight (hover to see other rain measurements)
** Current wind speed in m/s (hover to see current wind gust speed)